createdAt,value
2018-02-12T00:00:42.334Z,98666.59
2018-02-12T00:03:09.984Z,98667.63
2018-02-12T00:05:37.517Z,98668.58
2018-02-12T00:08:05.601Z,98673.24
2018-02-12T00:10:33.120Z,98663.50
2018-02-12T00:13:00.670Z,98676.47
2018-02-12T00:15:28.251Z,98678.48
2018-02-12T00:17:55.798Z,98679.92
2018-02-12T00:20:23.455Z,98677.53
2018-02-12T00:22:51.127Z,98681.70
2018-02-12T00:25:18.683Z,98677.25
2018-02-12T00:27:46.259Z,98683.66
2018-02-12T00:30:13.766Z,98691.19
2018-02-12T00:32:41.291Z,98681.22
2018-02-12T00:35:08.818Z,98680.14
2018-02-12T00:37:36.348Z,98676.76
2018-02-12T00:40:03.940Z,98682.66
2018-02-12T00:42:31.475Z,98678.63
2018-02-12T00:44:59.026Z,98685.01
2018-02-12T00:47:26.528Z,98677.87
2018-02-12T00:49:54.082Z,98684.98
2018-02-12T00:52:21.616Z,98688.58
2018-02-12T00:54:49.187Z,98682.20
2018-02-12T00:57:16.687Z,98679.80
2018-02-12T00:59:44.181Z,98674.07
2018-02-12T01:02:11.739Z,98687.36
2018-02-12T01:04:39.266Z,98689.02
2018-02-12T01:07:06.796Z,98698.75
2018-02-12T01:09:34.299Z,98689.85
2018-02-12T01:12:01.851Z,98687.30
2018-02-12T01:14:29.456Z,98699.03
2018-02-12T01:16:57.022Z,98682.49
2018-02-12T01:19:24.530Z,98683.55
2018-02-12T01:21:52.134Z,98677.23
2018-02-12T01:24:19.638Z,98691.12
2018-02-12T01:26:47.160Z,98695.97
2018-02-12T01:29:14.717Z,98712.96
2018-02-12T01:31:42.218Z,98697.16
2018-02-12T01:34:09.770Z,98705.81
2018-02-12T01:36:37.279Z,98707.81
2018-02-12T01:39:05.850Z,98724.23
2018-02-12T01:41:33.358Z,98716.61
2018-02-12T01:44:00.911Z,98720.91
2018-02-12T01:46:28.433Z,98726.41
2018-02-12T01:48:56.113Z,98726.30
2018-02-12T01:51:23.636Z,98714.55
2018-02-12T01:53:51.140Z,98721.20
2018-02-12T01:56:18.799Z,98723.47
2018-02-12T01:58:46.318Z,98723.90
2018-02-12T02:01:13.862Z,98728.28
2018-02-12T02:03:41.469Z,98735.59
2018-02-12T02:06:09.027Z,98742.41
2018-02-12T02:08:36.552Z,98744.50
2018-02-12T02:11:04.104Z,98740.24
2018-02-12T02:13:31.622Z,98748.17
2018-02-12T02:15:59.264Z,98749.36
2018-02-12T02:18:26.778Z,98745.21
2018-02-12T02:20:54.312Z,98747.45
2018-02-12T02:23:21.865Z,98753.72
2018-02-12T02:25:49.366Z,98750.86
2018-02-12T02:28:16.920Z,98759.75
2018-02-12T02:30:44.445Z,98758.58
2018-02-12T02:33:11.975Z,98764.01
2018-02-12T02:35:39.536Z,98764.52
2018-02-12T02:38:07.198Z,98768.03
2018-02-12T02:40:34.732Z,98767.70
2018-02-12T02:43:02.236Z,98789.25
2018-02-12T02:45:29.889Z,98775.61
2018-02-12T02:47:57.410Z,98764.34
2018-02-12T02:50:24.940Z,98781.13
2018-02-12T02:52:52.446Z,98779.51
2018-02-12T02:55:19.995Z,98775.41
2018-02-12T02:57:47.522Z,98782.03
2018-02-12T03:00:15.129Z,98776.07
2018-02-12T03:02:42.651Z,98781.39
2018-02-12T03:05:10.357Z,98780.19
2018-02-12T03:07:37.856Z,98783.99
2018-02-12T03:10:06.288Z,98793.73
2018-02-12T03:12:33.835Z,98787.50
2018-02-12T03:15:01.363Z,98793.41
2018-02-12T03:17:28.932Z,98799.98
2018-02-12T03:19:56.517Z,98800.53
2018-02-12T03:22:24.069Z,98796.09
2018-02-12T03:24:51.646Z,98798.04
2018-02-12T03:27:19.191Z,98796.19
2018-02-12T03:29:46.725Z,98799.38
2018-02-12T03:32:14.231Z,98804.59
2018-02-12T03:34:41.884Z,98813.83
2018-02-12T03:37:09.440Z,98802.65
2018-02-12T03:39:37.104Z,98808.33
2018-02-12T03:42:04.668Z,98825.19
2018-02-12T03:44:32.214Z,98818.77
2018-02-12T03:46:59.713Z,98822.28
2018-02-12T03:49:27.248Z,98831.25
2018-02-12T03:51:54.901Z,98829.48
2018-02-12T03:54:22.499Z,98832.81
2018-02-12T03:56:50.114Z,98835.77
2018-02-12T03:59:17.630Z,98841.48
2018-02-12T04:01:45.166Z,98844.49
2018-02-12T04:04:12.809Z,98858.07
2018-02-12T04:06:40.463Z,98847.73
2018-02-12T04:09:08.019Z,98851.23
2018-02-12T04:11:36.467Z,98862.45
2018-02-12T04:14:03.969Z,98856.48
2018-02-12T04:16:31.520Z,98862.03
2018-02-12T04:18:59.076Z,98868.22
2018-02-12T04:21:26.674Z,98877.30
2018-02-12T04:23:54.196Z,98870.43
2018-02-12T04:26:21.703Z,98874.39
2018-02-12T04:28:49.255Z,98869.23
2018-02-12T04:31:16.780Z,98874.63
2018-02-12T04:33:44.335Z,98874.61
2018-02-12T04:36:11.890Z,98881.81
2018-02-12T04:38:39.448Z,98878.91
2018-02-12T04:41:06.970Z,98884.45
2018-02-12T04:43:34.518Z,98885.95
2018-02-12T04:46:02.014Z,98893.90
2018-02-12T04:48:29.594Z,98900.28
2018-02-12T04:50:57.126Z,98897.63
2018-02-12T04:53:24.807Z,98885.91
2018-02-12T04:55:52.330Z,98896.77
2018-02-12T04:58:19.924Z,98901.47
2018-02-12T05:00:47.482Z,98896.83
2018-02-12T05:03:15.045Z,98888.83
2018-02-12T05:05:42.615Z,98905.09
2018-02-12T05:08:10.168Z,98902.46
2018-02-12T05:10:37.745Z,98913.80
2018-02-12T05:13:05.325Z,98912.98
2018-02-12T05:15:32.899Z,98921.31
2018-02-12T05:18:00.422Z,98925.02
2018-02-12T05:20:27.979Z,98931.56
2018-02-12T05:22:55.505Z,98933.07
2018-02-12T05:25:23.085Z,98938.12
2018-02-12T05:27:50.640Z,98939.07
2018-02-12T05:30:18.302Z,98948.21
2018-02-12T05:32:45.939Z,98950.71
2018-02-12T05:35:13.441Z,98948.41
2018-02-12T05:37:40.996Z,98952.38
2018-02-12T05:40:08.549Z,98956.79
2018-02-12T05:42:36.917Z,98925.73
2018-02-12T05:45:04.476Z,98957.75
2018-02-12T05:47:32.026Z,98965.88
2018-02-12T05:49:59.531Z,98966.42
2018-02-12T05:52:27.078Z,98973.42
2018-02-12T05:54:54.615Z,98964.05
2018-02-12T05:57:22.161Z,98978.14
2018-02-12T05:59:49.714Z,98982.15
2018-02-12T06:02:17.217Z,98990.20
2018-02-12T06:04:44.770Z,98988.61
2018-02-12T06:07:12.595Z,98990.48
2018-02-12T06:09:40.142Z,98994.28
2018-02-12T06:12:08.025Z,98999.29
2018-02-12T06:14:35.573Z,99007.38
2018-02-12T06:17:03.100Z,99011.37
2018-02-12T06:19:30.678Z,99018.16
2018-02-12T06:21:58.187Z,99020.67
2018-02-12T06:24:25.711Z,99027.85
2018-02-12T06:26:53.258Z,99029.34
2018-02-12T06:29:20.850Z,99020.67
2018-02-12T06:31:48.410Z,99025.73
2018-02-12T06:34:15.945Z,99035.20
2018-02-12T06:36:43.843Z,99037.49
2018-02-12T06:39:11.346Z,99051.06
2018-02-12T06:41:38.904Z,99044.29
2018-02-12T06:44:06.530Z,99043.04
2018-02-12T06:46:34.222Z,99049.02
2018-02-12T06:49:01.783Z,99046.84
2018-02-12T06:51:29.409Z,99046.77
2018-02-12T06:53:57.065Z,99054.40
2018-02-12T06:56:24.617Z,99054.10
2018-02-12T06:58:52.167Z,99063.83
2018-02-12T07:01:19.694Z,99062.15
2018-02-12T07:03:47.521Z,99067.09
2018-02-12T07:06:15.025Z,99069.72
2018-02-12T07:08:42.627Z,99088.98
2018-02-12T07:11:10.171Z,99081.09
2018-02-12T07:13:37.980Z,99087.28
2018-02-12T07:16:05.510Z,99085.91
2018-02-12T07:18:33.058Z,99099.75
2018-02-12T07:21:00.633Z,99101.95
2018-02-12T07:23:28.162Z,99106.21
2018-02-12T07:25:55.694Z,99119.21
2018-02-12T07:28:23.218Z,99104.01
2018-02-12T07:30:50.770Z,99101.95
2018-02-12T07:33:18.313Z,99110.77
2018-02-12T07:35:45.852Z,99105.98
2018-02-12T07:38:13.439Z,99121.52
2018-02-12T07:40:40.975Z,99129.58
2018-02-12T07:43:09.111Z,99128.44
2018-02-12T07:45:36.811Z,99126.00
2018-02-12T07:48:04.434Z,99124.87
2018-02-12T07:50:31.992Z,99128.09
2018-02-12T07:52:59.515Z,99127.07
2018-02-12T07:55:27.019Z,99125.69
2018-02-12T07:57:54.623Z,99124.56
2018-02-12T08:00:22.184Z,99135.83
2018-02-12T08:02:53.762Z,99141.72
2018-02-12T08:05:21.625Z,99140.66
2018-02-12T08:07:49.180Z,99140.65
2018-02-12T08:10:16.682Z,99140.09
2018-02-12T08:12:44.254Z,99142.44
2018-02-12T08:15:11.763Z,99147.53
2018-02-12T08:17:39.589Z,99167.50
2018-02-12T08:20:10.646Z,99177.46
2018-02-12T08:22:39.043Z,99169.33
2018-02-12T08:25:06.596Z,99162.71
2018-02-12T08:27:34.122Z,99168.72
2018-02-12T08:30:02.300Z,99180.94
2018-02-12T08:32:30.030Z,99184.25
2018-02-12T08:34:57.579Z,99184.36
2018-02-12T08:37:25.212Z,99189.50
2018-02-12T08:39:52.763Z,99194.89
2018-02-12T08:42:22.172Z,99185.16
2018-02-12T08:44:49.928Z,99199.54
2018-02-12T08:47:18.882Z,99207.11
2018-02-12T08:49:46.419Z,99205.59
2018-02-12T08:52:16.534Z,99219.36
2018-02-12T08:54:44.373Z,99228.53
2018-02-12T08:57:11.924Z,99224.13
2018-02-12T08:59:39.790Z,99215.05
2018-02-12T09:02:07.337Z,99226.09
2018-02-12T09:04:34.854Z,99233.05
2018-02-12T09:07:02.387Z,99241.84
2018-02-12T09:09:29.910Z,99247.61
2018-02-12T09:11:57.439Z,99237.61
2018-02-12T09:14:24.967Z,99240.80
2018-02-12T09:16:52.519Z,99241.95
2018-02-12T09:19:20.042Z,99248.61
2018-02-12T09:21:48.548Z,99262.33
2018-02-12T09:24:16.074Z,99259.70
2018-02-12T09:26:43.601Z,99259.20
2018-02-12T09:29:11.152Z,99259.35
2018-02-12T09:31:38.708Z,99257.38
2018-02-12T09:34:09.754Z,99258.74
2018-02-12T09:36:37.488Z,99262.63
2018-02-12T09:39:05.090Z,99265.55
2018-02-12T09:41:32.737Z,99252.16
2018-02-12T09:44:00.268Z,99264.83
2018-02-12T09:46:27.999Z,99270.70
2018-02-12T09:48:55.593Z,99258.13
2018-02-12T09:51:23.102Z,99281.55
2018-02-12T09:53:51.252Z,99283.81
2018-02-12T09:56:18.880Z,99288.11
2018-02-12T09:58:46.481Z,99284.97
2018-02-12T10:01:14.010Z,99302.05
2018-02-12T10:03:41.552Z,99285.14
2018-02-12T10:06:10.042Z,99297.31
2018-02-12T10:08:37.593Z,99291.58
2018-02-12T10:11:05.253Z,99296.62
2018-02-12T10:13:32.812Z,99300.64
2018-02-12T10:16:00.474Z,99309.89
2018-02-12T10:18:27.996Z,99303.75
2018-02-12T10:20:57.962Z,99318.45
2018-02-12T10:23:28.931Z,99314.45
2018-02-12T10:25:59.106Z,99321.42
2018-02-12T10:28:30.206Z,99334.55
2018-02-12T10:31:00.466Z,99323.69
2018-02-12T10:33:31.417Z,99328.84
2018-02-12T10:36:02.053Z,99329.93
2018-02-12T10:38:32.918Z,99329.38
2018-02-12T10:41:02.873Z,99338.30
2018-02-12T10:43:33.199Z,99344.52
2018-02-12T10:46:03.893Z,99336.91
2018-02-12T10:48:33.681Z,99345.06
2018-02-12T10:51:04.531Z,99341.51
2018-02-12T10:53:34.848Z,99349.12
2018-02-12T10:56:04.557Z,99338.08
2018-02-12T10:58:35.236Z,99331.52
2018-02-12T11:01:04.111Z,99337.13
2018-02-12T11:03:34.050Z,99329.50
2018-02-12T11:06:03.739Z,99340.01
2018-02-12T11:08:32.774Z,99330.22
2018-02-12T11:11:01.801Z,99333.81
2018-02-12T11:13:30.861Z,99329.91
2018-02-12T11:15:59.958Z,99330.14
2018-02-12T11:18:29.837Z,99342.48
2018-02-12T11:20:58.875Z,99341.78
2018-02-12T11:23:27.725Z,99339.98
2018-02-12T11:25:58.388Z,99342.02
2018-02-12T11:28:28.561Z,99336.50
2018-02-12T11:30:58.931Z,99354.20
2018-02-12T11:33:28.946Z,99339.21
2018-02-12T11:35:59.094Z,99351.55
2018-02-12T11:38:29.342Z,99346.16
2018-02-12T11:40:59.420Z,99359.17
2018-02-12T11:43:29.592Z,99351.63
2018-02-12T11:46:00.500Z,99372.08
2018-02-12T11:48:29.906Z,99350.40
2018-02-12T11:51:00.741Z,99351.20
2018-02-12T11:53:31.904Z,99348.41
2018-02-12T11:56:03.019Z,99359.50
2018-02-12T11:58:34.047Z,99349.97
2018-02-12T12:01:04.202Z,99355.61
2018-02-12T12:03:34.009Z,99348.99
2018-02-12T12:06:04.420Z,99358.56
2018-02-12T12:08:34.946Z,99360.73
2018-02-12T12:11:04.934Z,99352.00
2018-02-12T12:13:35.360Z,99370.09
2018-02-12T12:16:05.064Z,99359.02
2018-02-12T12:18:35.304Z,99352.35
2018-02-12T12:21:06.271Z,99349.70
2018-02-12T12:23:36.371Z,99350.77
2018-02-12T12:26:06.262Z,99335.06
2018-02-12T12:28:33.890Z,99343.86
2018-02-12T12:31:01.490Z,99354.30
2018-02-12T12:33:28.994Z,99350.80
2018-02-12T12:35:56.550Z,99346.50
2018-02-12T12:38:24.181Z,99345.96
2018-02-12T12:40:52.442Z,99344.72
2018-02-12T12:43:21.608Z,99352.91
2018-02-12T12:45:49.868Z,99338.58
2018-02-12T12:48:18.249Z,99354.04
2018-02-12T12:50:46.489Z,99339.31
2018-02-12T12:53:14.794Z,99352.11
2018-02-12T12:55:43.089Z,99345.34
2018-02-12T12:58:11.347Z,99351.20
2018-02-12T13:00:40.343Z,99341.83
2018-02-12T13:03:08.676Z,99342.86
2018-02-12T13:05:36.908Z,99337.72
2018-02-12T13:08:05.460Z,99340.97
2018-02-12T13:10:33.747Z,99335.97
2018-02-12T13:13:04.460Z,99339.66
2018-02-12T13:15:35.135Z,99357.61
2018-02-12T13:18:05.915Z,99344.85
2018-02-12T13:20:37.539Z,99356.80
2018-02-12T13:23:08.079Z,99348.05
2018-02-12T13:25:40.137Z,99333.28
2018-02-12T13:28:10.728Z,99345.08
2018-02-12T13:30:41.495Z,99346.91
2018-02-12T13:33:12.038Z,99354.90
2018-02-12T13:35:42.604Z,99354.63
2018-02-12T13:38:12.662Z,99351.80
2018-02-12T13:40:43.457Z,99357.69
2018-02-12T13:43:15.138Z,99377.93
2018-02-12T13:45:45.206Z,99357.95
2018-02-12T13:48:15.138Z,99354.55
2018-02-12T13:50:44.957Z,99345.13
2018-02-12T13:53:14.126Z,99353.27
2018-02-12T13:55:44.438Z,99351.38
2018-02-12T13:58:14.815Z,99356.61
2018-02-12T14:00:45.034Z,99345.98
2018-02-12T14:03:15.555Z,99355.16
2018-02-12T14:05:45.557Z,99341.09
2018-02-12T14:08:16.580Z,99348.30
2018-02-12T14:10:46.643Z,99355.45
2018-02-12T14:13:17.194Z,99336.80
2018-02-12T14:15:47.368Z,99345.69
2018-02-12T14:18:17.851Z,99352.62
2018-02-12T14:20:48.583Z,99358.00
2018-02-12T14:23:19.026Z,99361.73
2018-02-12T14:25:50.125Z,99363.06
2018-02-12T14:28:20.949Z,99363.28
2018-02-12T14:30:51.364Z,99350.43
2018-02-12T14:33:22.234Z,99369.89
2018-02-12T14:35:52.435Z,99368.72
2018-02-12T14:38:22.499Z,99375.47
2018-02-12T14:40:52.430Z,99372.72
2018-02-12T14:43:22.420Z,99371.92
2018-02-12T14:45:52.402Z,99363.57
2018-02-12T14:48:22.270Z,99380.41
2018-02-12T14:50:51.767Z,99386.36
2018-02-12T14:53:20.675Z,99382.80
2018-02-12T14:55:51.379Z,99379.73
2018-02-12T14:58:21.602Z,99386.05
2018-02-12T15:00:52.409Z,99392.95
2018-02-12T15:03:22.585Z,99377.50
2018-02-12T15:05:56.095Z,99386.34
2018-02-12T15:08:27.761Z,99395.62
2018-02-12T15:10:57.414Z,99380.54
2018-02-12T15:13:27.965Z,99389.42
2018-02-12T15:15:59.605Z,99381.53
2018-02-12T15:18:30.329Z,99383.16
2018-02-12T15:21:00.403Z,99385.17
2018-02-12T15:23:31.326Z,99390.91
2018-02-12T15:26:03.779Z,99385.03
2018-02-12T15:28:33.115Z,99393.14
2018-02-12T15:31:04.316Z,99394.44
2018-02-12T15:33:35.445Z,99388.05
2018-02-12T15:36:06.290Z,99387.30
2018-02-12T15:38:35.723Z,99385.86
2018-02-12T15:41:04.295Z,99398.84
2018-02-12T15:43:35.027Z,99404.23
2018-02-12T15:46:06.315Z,99401.72
2018-02-12T15:48:37.260Z,99403.20
2018-02-12T15:51:08.106Z,99407.61
2018-02-12T15:53:39.153Z,99417.95
2018-02-12T15:56:09.844Z,99408.87
2018-02-12T15:58:39.966Z,99413.84
2018-02-12T16:01:12.161Z,99412.71
2018-02-12T16:03:42.397Z,99416.42
2018-02-12T16:06:12.920Z,99414.41
2018-02-12T16:08:44.180Z,99420.28
2018-02-12T16:11:14.924Z,99420.19
2018-02-12T16:13:46.508Z,99415.34
2018-02-12T16:16:17.696Z,99418.75
2018-02-12T16:18:48.525Z,99422.78
2018-02-12T16:21:19.078Z,99419.16
2018-02-12T16:23:52.040Z,99427.11
2018-02-12T16:26:22.358Z,99428.33
2018-02-12T16:28:53.456Z,99421.14
2018-02-12T16:31:24.815Z,99421.72
2018-02-12T16:33:56.273Z,99414.53
2018-02-12T16:36:26.841Z,99421.34
2018-02-12T16:38:58.449Z,99424.16
2018-02-12T16:41:28.968Z,99431.77
2018-02-12T16:44:00.276Z,99429.75
2018-02-12T16:46:30.391Z,99421.94
2018-02-12T16:49:02.327Z,99431.26
2018-02-12T16:51:32.940Z,99421.34
2018-02-12T16:54:04.465Z,99429.28
2018-02-12T16:56:36.782Z,99426.39
2018-02-12T16:59:07.393Z,99424.00
2018-02-12T17:01:37.918Z,99426.93
2018-02-12T17:04:08.238Z,99438.09
2018-02-12T17:06:38.819Z,99432.41
2018-02-12T17:09:09.756Z,99434.89
2018-02-12T17:11:41.489Z,99431.29
2018-02-12T17:14:13.391Z,99429.27
2018-02-12T17:16:43.555Z,99430.88
2018-02-12T17:19:14.634Z,99433.92
2018-02-12T17:21:44.417Z,99437.05
2018-02-12T17:24:16.066Z,99428.13
2018-02-12T17:26:46.471Z,99432.18
2018-02-12T17:29:17.464Z,99431.86
2018-02-12T17:31:48.445Z,99415.49
2018-02-12T17:34:18.654Z,99448.06
2018-02-12T17:36:49.302Z,99442.78
2018-02-12T17:39:19.878Z,99440.47
2018-02-12T17:41:51.926Z,99448.52
2018-02-12T17:44:23.060Z,99446.84
2018-02-12T17:46:53.880Z,99449.22
2018-02-12T17:49:22.980Z,99452.47
2018-02-12T17:51:51.466Z,99453.09
2018-02-12T17:54:19.067Z,99453.83
2018-02-12T17:56:48.484Z,99450.94
2018-02-12T17:59:23.028Z,99449.22
2018-02-12T18:01:51.632Z,99444.62
2018-02-12T18:04:20.841Z,99454.84
2018-02-12T18:06:49.524Z,99452.33
2018-02-12T18:09:17.799Z,99469.06
2018-02-12T18:11:48.730Z,99443.13
2018-02-12T18:14:17.244Z,99464.65
2018-02-12T18:16:45.588Z,99463.77
2018-02-12T18:19:13.835Z,99468.63
2018-02-12T18:21:43.844Z,99467.76
2018-02-12T18:24:12.097Z,99479.38
2018-02-12T18:26:44.306Z,99474.89
2018-02-12T18:29:13.465Z,99473.28
2018-02-12T18:31:41.813Z,99472.44
2018-02-12T18:34:18.421Z,99472.38
2018-02-12T18:36:50.056Z,99470.73
2018-02-12T18:39:22.107Z,99472.14
2018-02-12T18:41:55.560Z,99467.69
2018-02-12T18:44:29.838Z,99478.64
2018-02-12T18:47:04.910Z,99478.42
2018-02-12T18:49:37.262Z,99475.87
2018-02-12T18:52:10.090Z,99487.27
2018-02-12T18:54:40.805Z,99480.82
2018-02-12T18:57:12.757Z,99481.95
2018-02-12T18:59:45.872Z,99476.38
2018-02-12T19:02:19.661Z,99476.57
2018-02-12T19:04:50.202Z,99477.63
2018-02-12T19:07:19.796Z,99477.81
2018-02-12T19:09:51.527Z,99476.83
2018-02-12T19:12:21.334Z,99476.02
2018-02-12T19:14:49.047Z,99474.72
2018-02-12T19:17:16.842Z,99447.30
2018-02-12T19:19:44.370Z,99477.75
2018-02-12T19:22:11.923Z,99477.36
2018-02-12T19:24:39.451Z,99470.19
2018-02-12T19:27:07.003Z,99479.97
2018-02-12T19:29:34.536Z,99483.00
2018-02-12T19:32:02.107Z,99482.42
2018-02-12T19:34:29.659Z,99483.36
2018-02-12T19:36:57.186Z,99482.81
2018-02-12T19:39:24.762Z,99484.36
2018-02-12T19:41:52.318Z,99482.52
2018-02-12T19:44:19.871Z,99479.44
2018-02-12T19:46:47.420Z,99481.44
2018-02-12T19:49:14.972Z,99483.09
2018-02-12T19:51:42.502Z,99484.09
2018-02-12T19:54:10.050Z,99484.56
2018-02-12T19:56:37.578Z,99484.91
2018-02-12T19:59:05.135Z,99494.98
2018-02-12T20:01:32.681Z,99495.28
2018-02-12T20:04:04.315Z,99500.13
2018-02-12T20:06:33.272Z,99497.31
2018-02-12T20:09:00.814Z,99505.85
2018-02-12T20:11:28.366Z,99497.26
2018-02-12T20:13:55.897Z,99501.12
2018-02-12T20:16:24.825Z,99510.75
2018-02-12T20:18:52.428Z,99514.37
2018-02-12T20:21:19.983Z,99505.50
2018-02-12T20:23:47.510Z,99515.07
2018-02-12T20:26:15.085Z,99508.73
2018-02-12T20:28:42.609Z,99509.61
2018-02-12T20:31:10.210Z,99503.92
2018-02-12T20:33:37.741Z,99519.00
2018-02-12T20:36:05.315Z,99518.76
2018-02-12T20:38:32.866Z,99516.52
2018-02-12T20:41:00.398Z,99513.16
2018-02-12T20:43:27.951Z,99527.81
2018-02-12T20:45:55.519Z,99521.76
2018-02-12T20:48:23.078Z,99520.54
2018-02-12T20:50:50.632Z,99522.09
2018-02-12T20:53:19.051Z,99527.22
2018-02-12T20:55:46.611Z,99527.64
2018-02-12T20:58:14.245Z,99529.75
2018-02-12T21:00:41.795Z,99522.84
2018-02-12T21:03:09.315Z,99521.19
2018-02-12T21:05:36.902Z,99519.91
2018-02-12T21:08:04.418Z,99522.52
2018-02-12T21:10:31.977Z,99525.25
2018-02-12T21:12:59.581Z,99527.86
2018-02-12T21:15:27.170Z,99524.34
2018-02-12T21:18:01.090Z,99525.17
2018-02-12T21:20:38.158Z,99517.41
2018-02-12T21:23:11.037Z,99521.15
2018-02-12T21:25:44.730Z,99530.02
2018-02-12T21:28:16.962Z,99515.89
2018-02-12T21:30:50.824Z,99524.84
2018-02-12T21:33:22.568Z,99519.34
2018-02-12T21:35:54.452Z,99521.87
2018-02-12T21:38:27.173Z,99528.29
2018-02-12T21:41:00.691Z,99520.30
2018-02-12T21:43:31.309Z,99526.75
2018-02-12T21:46:01.381Z,99519.84
2018-02-12T21:48:29.045Z,99523.70
2018-02-12T21:50:57.333Z,99521.19
2018-02-12T21:53:24.913Z,99525.95
2018-02-12T21:55:52.540Z,99519.48
2018-02-12T21:58:25.393Z,99514.44
2018-02-12T22:00:55.702Z,99515.30
2018-02-12T22:03:24.010Z,99520.44
2018-02-12T22:05:53.493Z,99519.67
2018-02-12T22:08:21.673Z,99516.45
2018-02-12T22:10:49.617Z,99518.92
2018-02-12T22:13:17.856Z,99520.19
2018-02-12T22:15:46.103Z,99516.68
2018-02-12T22:18:13.810Z,99518.05
2018-02-12T22:20:44.412Z,99512.05
2018-02-12T22:23:13.190Z,99517.62
2018-02-12T22:25:40.743Z,99523.64
2018-02-12T22:28:08.276Z,99524.10
2018-02-12T22:30:35.847Z,99501.90
2018-02-12T22:33:03.373Z,99517.30
2018-02-12T22:35:30.951Z,99520.80
2018-02-12T22:37:58.479Z,99516.58
2018-02-12T22:40:26.080Z,99503.31
2018-02-12T22:42:53.667Z,99503.20
2018-02-12T22:45:21.188Z,99514.89
2018-02-12T22:47:49.355Z,99516.64
2018-02-12T22:50:16.892Z,99509.73
2018-02-12T22:52:44.446Z,99509.68
2018-02-12T22:55:13.067Z,99504.13
2018-02-12T22:57:42.769Z,99511.41
2018-02-12T23:00:11.154Z,99517.42
2018-02-12T23:02:38.702Z,99501.78
2018-02-12T23:05:06.304Z,99505.48
2018-02-12T23:07:33.915Z,99512.34
2018-02-12T23:10:02.011Z,99505.91
2018-02-12T23:12:30.358Z,99509.84
2018-02-12T23:14:58.056Z,99498.34
2018-02-12T23:17:26.130Z,99508.61
2018-02-12T23:19:54.382Z,99502.64
2018-02-12T23:22:22.422Z,99505.66
2018-02-12T23:24:50.127Z,99508.28
2018-02-12T23:27:17.686Z,99504.97
2018-02-12T23:29:47.137Z,99499.40
2018-02-12T23:32:15.365Z,99500.59
2018-02-12T23:34:43.107Z,99502.69
2018-02-12T23:37:10.833Z,99504.85
2018-02-12T23:39:38.858Z,99503.16
2018-02-12T23:42:06.635Z,99498.44
2018-02-12T23:44:34.337Z,99490.91
2018-02-12T23:47:02.557Z,99507.02
2018-02-12T23:49:30.421Z,99499.27
2018-02-12T23:51:58.095Z,99504.99
2018-02-12T23:54:26.566Z,99505.03
2018-02-12T23:56:54.146Z,99501.45
2018-02-12T23:59:22.201Z,99506.84
